Time;durP1;ratioP1;P1;durP2;ratioP2;P2;SDS_P1;SDS_P2;PMS_P1;PMS_P2;Temp;Humidity;BMP_temperature;BMP_pressure;BME280_temperature;BME280_humidity;BME280_pressure;Samples;Min_cycle;Max_cycle;Signal;HPM_P1;HPM_P2
2023/05/03 00:00:48;;;;;;;;;;;;;;;;;;5031878;28;19905;-54
2023/05/03 00:03:13;;;;;;;;;;;;;;;;;;5031791;28;19920;-56
2023/05/03 00:05:39;;;;;;;;;;;;;;;;;;5031887;28;19908;-56
2023/05/03 00:08:06;;;;;;;;;;;;;;;;;;5032156;28;19905;-56
2023/05/03 00:10:32;;;;;;;;;;;;;;;;;;5031835;28;19917;-56
2023/05/03 00:12:59;;;;;;;2.30;2.10;;;;;;;;;;5031150;28;20374;-56
2023/05/03 00:15:25;;;;;;;4.13;2.50;;;;;;;;;;5031156;28;20208;-56
2023/05/03 00:17:51;;;;;;;3.07;2.20;;;;;;;;;;5029558;28;20428;-57
2023/05/03 00:20:18;;;;;;;3.43;2.57;;;;;;;;;;5029624;28;20436;-56
2023/05/03 00:22:44;;;;;;;2.80;2.10;;;;;;;;;;5031553;28;20440;-57
2023/05/03 00:25:10;;;;;;;3.30;2.00;;;;;;;;;;5031326;28;20464;-55
2023/05/03 00:27:36;;;;;;;;;;;;;;;;;;5031844;28;20087;-56
2023/05/03 00:30:03;;;;;;;4.10;2.45;;;;;;;;;;5030084;28;20415;-57
2023/05/03 00:32:29;;;;;;;3.40;2.40;;;;;;;;;;5031130;28;20211;-56
2023/05/03 00:34:56;;;;;;;3.70;2.67;;;;;;;;;;5029534;28;20444;-56
2023/05/03 00:37:22;;;;;;;4.23;2.47;;;;;;;;;;5031274;28;20194;-57
2023/05/03 00:39:48;;;;;;;4.97;2.20;;;;;;;;;;5031189;28;20481;-56
2023/05/03 00:42:14;;;;;;;2.70;2.20;;;;;;;;;;5031131;28;20436;-56
2023/05/03 00:44:40;;;;;;;3.03;2.40;;;;;;;;;;5031285;28;20443;-56
2023/05/03 00:47:06;;;;;;;;;;;;;;;;;;5031628;28;20287;-56
2023/05/03 00:49:32;;;;;;;;;;;;;;;;;;5031434;28;19905;-56
2023/05/03 00:51:58;;;;;;;;;;;;;;;;;;5031501;28;19913;-56
2023/05/03 00:54:24;;;;;;;;;;;;;;;;;;5031363;28;19997;-56
2023/05/03 00:56:50;;;;;;;;;;;;;;;;;;5031676;28;20378;-56
2023/05/03 00:59:17;;;;;;;4.10;2.80;;;;;;;;;;5029688;28;20427;-56
2023/05/03 01:01:44;;;;;;;4.80;3.00;;;;;;;;;;5029857;28;20426;-56
2023/05/03 01:04:09;;;;;;;;;;;;;;;;;;5031285;28;20050;-56
2023/05/03 01:06:35;;;;;;;;;;;;;;;;;;5031547;28;19991;-56
2023/05/03 01:09:01;;;;;;;;;;;;;;;;;;5031420;28;19909;-56
2023/05/03 01:11:27;;;;;;;;;;;;;;;;;;5031254;28;19916;-56
2023/05/03 01:13:53;;;;;;;;;;;;;;;;;;5031356;28;20249;-56
2023/05/03 01:16:19;;;;;;;;;;;;;;;;;;5031430;28;19909;-56
2023/05/03 01:18:47;;;;;;;;;;;;;;;;;;5031365;28;19929;-56
2023/05/03 01:21:13;;;;;;;;;;;;;;;;;;5031363;28;19955;-56
2023/05/03 01:23:43;;;;;;;2.53;2.33;;;;;;;;;;5030637;28;20649;-56
2023/05/03 01:26:19;;;;;;;3.27;2.70;;;;;;;;;;5029810;28;20415;-56
2023/05/03 01:28:45;;;;;;;5.10;2.92;;;;;;;;;;5029288;28;20462;-56
2023/05/03 01:31:11;;;;;;;;;;;;;;;;;;5031141;28;20073;-56
2023/05/03 01:33:47;;;;;;;3.67;2.60;;;;;;;;;;5029652;28;20750;-56
2023/05/03 01:36:15;;;;;;;7.97;4.80;;;;;;;;;;5030709;28;20468;-56
2023/05/03 01:38:42;;;;;;;6.97;3.43;;;;;;;;;;5030750;28;20479;-56
2023/05/03 01:41:09;;;;;;;2.93;2.40;;;;;;;;;;5031652;28;20501;-56
2023/05/03 01:43:37;;;;;;;3.30;2.63;;;;;;;;;;5034224;28;20523;-58
2023/05/03 01:46:03;;;;;;;7.27;3.00;;;;;;;;;;5034390;28;20488;-56
2023/05/03 01:48:29;;;;;;;5.63;2.93;;;;;;;;;;5034000;28;20372;-56
2023/05/03 01:50:55;;;;;;;;;;;;;;;;;;5034517;28;20045;-56
2023/05/03 01:53:21;;;;;;;5.63;3.42;;;;;;;;;;5032871;28;20399;-56
2023/05/03 01:55:47;;;;;;;;;;;;;;;;;;5034559;28;20133;-56
2023/05/03 01:58:13;;;;;;;4.22;2.80;;;;;;;;;;5032729;28;20753;-56
2023/05/03 02:00:39;;;;;;;;;;;;;;;;;;5034260;28;20044;-56
2023/05/03 02:03:06;;;;;;;3.00;2.70;;;;;;;;;;5034027;28;20269;-56
2023/05/03 02:05:32;;;;;;;4.83;2.40;;;;;;;;;;5033587;28;20221;-56
2023/05/03 02:07:58;;;;;;;;;;;;;;;;;;5034204;28;20045;-56
2023/05/03 02:10:24;;;;;;;;;;;;;;;;;;5034162;28;19921;-56
2023/05/03 02:12:50;;;;;;;;;;;;;;;;;;5034182;28;19993;-57
2023/05/03 02:15:18;;;;;;;;;;;;;;;;;;5034161;28;19902;-56
2023/05/03 02:17:46;;;;;;;;;;;;;;;;;;5033921;28;19912;-56
2023/05/03 02:20:12;;;;;;;;;;;;;;;;;;5034023;28;19901;-56
2023/05/03 02:22:37;;;;;;;;;;;;;;;;;;5034073;28;20374;-56
2023/05/03 02:25:03;;;;;;;;;;;;;;;;;;5033951;28;19905;-56
2023/05/03 02:27:29;;;;;;;;;;;;;;;;;;5033748;28;19908;-56
2023/05/03 02:29:56;;;;;;;;;;;;;;;;;;5033796;28;19906;-56
2023/05/03 02:32:24;;;;;;;2.87;2.43;;;;;;;;;;5033487;28;20197;-56
2023/05/03 02:34:50;;;;;;;3.27;2.83;;;;;;;;;;5033401;28;20444;-56
2023/05/03 02:37:16;;;;;;;5.30;3.00;;;;;;;;;;5033347;28;20450;-56
2023/05/03 02:39:42;;;;;;;3.20;2.83;;;;;;;;;;5033248;28;20498;-56
2023/05/03 02:42:08;;;;;;;4.10;2.40;;;;;;;;;;5033268;28;20778;-56
2023/05/03 02:44:34;;;;;;;3.17;2.63;;;;;;;;;;5033159;28;20446;-56
2023/05/03 02:47:00;;;;;;;2.80;2.60;;;;;;;;;;5033120;28;20201;-56
2023/05/03 02:49:28;;;;;;;3.13;2.83;;;;;;;;;;5033024;28;20476;-56
2023/05/03 02:51:55;;;;;;;4.43;2.87;;;;;;;;;;5032522;28;20557;-56
2023/05/03 02:54:22;;;;;;;3.07;2.60;;;;;;;;;;5032317;28;20804;-56
2023/05/03 02:56:48;;;;;;;3.97;2.80;;;;;;;;;;5033058;28;20469;-55
2023/05/03 02:59:14;;;;;;;4.83;2.70;;;;;;;;;;5015014;28;21193;-56
2023/05/03 03:01:40;;;;;;;6.73;3.37;;;;;;;;;;5032729;28;20463;-55
2023/05/03 03:04:06;;;;;;;4.25;3.17;;;;;;;;;;5031736;28;20897;-56
2023/05/03 03:06:33;;;;;;;3.10;2.77;;;;;;;;;;5032656;28;20236;-56
2023/05/03 03:08:59;;;;;;;4.15;3.17;;;;;;;;;;5031450;28;20531;-56
2023/05/03 03:11:25;;;;;;;3.53;3.00;;;;;;;;;;5031538;28;20522;-56
2023/05/03 03:13:51;;;;;;;3.80;3.13;;;;;;;;;;5031634;28;20800;-55
2023/05/03 03:16:17;;;;;;;5.22;3.65;;;;;;;;;;5031372;28;20443;-56
2023/05/03 03:18:43;;;;;;;3.88;3.13;;;;;;;;;;5031214;28;20395;-56
2023/05/03 03:21:09;;;;;;;4.25;3.50;;;;;;;;;;5031295;28;20544;-56
2023/05/03 03:23:37;;;;;;;4.30;3.20;;;;;;;;;;5031242;28;20884;-56
2023/05/03 03:26:03;;;;;;;3.87;3.33;;;;;;;;;;5031448;28;20414;-56
2023/05/03 03:28:29;;;;;;;4.32;3.65;;;;;;;;;;5031042;28;20893;-56
2023/05/03 03:30:55;;;;;;;3.88;3.45;;;;;;;;;;5030956;28;20457;-57
2023/05/03 03:33:21;;;;;;;3.88;3.47;;;;;;;;;;5031097;28;20403;-55
2023/05/03 03:35:47;;;;;;;3.23;2.83;;;;;;;;;;5030345;28;20502;-55
2023/05/03 03:38:13;;;;;;;3.90;3.43;;;;;;;;;;5031177;28;20411;-55
2023/05/03 03:40:40;;;;;;;3.65;3.30;;;;;;;;;;5030841;28;20396;-55
2023/05/03 03:43:10;;;;;;;3.78;3.42;;;;;;;;;;5031026;28;20505;-55
2023/05/03 03:45:36;;;;;;;4.78;3.35;;;;;;;;;;5030894;28;20877;-56
2023/05/03 03:48:02;;;;;;;4.47;3.30;;;;;;;;;;5030926;28;20418;-56
2023/05/03 03:50:28;;;;;;;4.68;3.53;;;;;;;;;;5030564;28;20411;-56
2023/05/03 03:52:54;;;;;;;4.55;3.65;;;;;;;;;;5030406;28;20468;-56
2023/05/03 03:55:20;;;;;;;4.25;3.20;;;;;;;;;;5030751;28;20395;-56
2023/05/03 03:57:48;;;;;;;5.28;3.67;;;;;;;;;;5030577;28;20444;-56
2023/05/03 04:00:14;;;;;;;4.07;3.58;;;;;;;;;;5030531;28;20677;-56
2023/05/03 04:02:40;;;;;;;4.03;3.10;;;;;;;;;;5030254;28;20431;-55
2023/05/03 04:05:06;;;;;;;4.30;3.22;;;;;;;;;;5030257;28;20391;-56
2023/05/03 04:07:32;;;;;;;5.27;3.20;;;;;;;;;;5010750;28;20487;-56
2023/05/03 04:09:58;;;;;;;4.47;3.28;;;;;;;;;;5010809;28;20412;-56
2023/05/03 04:12:24;;;;;;;4.90;3.55;;;;;;;;;;5010520;28;20899;-56
2023/05/03 04:14:52;;;;;;;3.88;3.45;;;;;;;;;;5010576;28;20415;-55
2023/05/03 04:17:18;;;;;;;5.28;4.15;;;;;;;;;;5010726;28;20401;-56
2023/05/03 04:19:45;;;;;;;8.23;4.73;;;;;;;;;;5010562;28;21051;-55
2023/05/03 04:22:11;;;;;;;5.60;4.20;;;;;;;;;;5010505;28;20404;-55
2023/05/03 04:24:38;;;;;;;4.95;3.92;;;;;;;;;;5010361;28;20412;-56
2023/05/03 04:27:04;;;;;;;7.32;5.07;;;;;;;;;;5010687;28;20461;-56
2023/05/03 04:29:30;;;;;;;6.00;4.87;;;;;;;;;;5010440;28;20408;-55
2023/05/03 04:32:00;;;;;;;8.18;6.05;;;;;;;;;;5010446;28;20452;-56
2023/05/03 04:34:26;;;;;;;9.07;6.50;;;;;;;;;;5010452;28;20412;-56
2023/05/03 04:36:52;;;;;;;9.07;5.97;;;;;;;;;;5010466;28;20409;-56
2023/05/03 04:39:18;;;;;;;7.75;6.13;;;;;;;;;;5010340;28;20400;-56
2023/05/03 04:41:44;;;;;;;7.07;5.18;;;;;;;;;;5010139;28;20396;-56
2023/05/03 04:44:10;;;;;;;5.47;3.90;;;;;;;;;;5010433;28;20435;-57
2023/05/03 04:46:38;;;;;;;5.75;4.00;;;;;;;;;;5010238;28;20436;-57
2023/05/03 04:49:05;;;;;;;5.18;3.83;;;;;;;;;;5010222;28;20966;-57
2023/05/03 04:51:32;;;;;;;4.35;3.67;;;;;;;;;;5010001;28;20413;-57
2023/05/03 04:53:58;;;;;;;4.65;4.00;;;;;;;;;;5010151;28;20677;-57
2023/05/03 04:56:25;;;;;;;3.97;3.58;;;;;;;;;;5010167;28;20408;-56
2023/05/03 04:58:51;;;;;;;4.22;3.50;;;;;;;;;;5010262;28;20435;-56
2023/05/03 05:01:17;;;;;;;4.82;3.92;;;;;;;;;;5010257;28;20418;-56
2023/05/03 05:03:43;;;;;;;4.70;3.67;;;;;;;;;;5010000;28;20407;-57
2023/05/03 05:06:11;;;;;;;4.97;3.90;;;;;;;;;;5018573;28;20407;-56
2023/05/03 05:08:37;;;;;;;4.10;3.58;;;;;;;;;;5029870;28;20411;-58
2023/05/03 05:11:04;;;;;;;4.20;3.80;;;;;;;;;;5029633;28;20426;-60
2023/05/03 05:13:30;;;;;;;6.22;4.50;;;;;;;;;;5029782;28;20403;-56
2023/05/03 05:15:56;;;;;;;5.53;4.22;;;;;;;;;;5029914;28;20880;-56
2023/05/03 05:18:22;;;;;;;4.30;3.90;;;;;;;;;;5033224;28;20414;-56
2023/05/03 05:20:48;;;;;;;4.80;4.40;;;;;;;;;;5033310;28;20403;-56
2023/05/03 05:23:15;;;;;;;5.43;4.90;;;;;;;;;;5033127;28;20399;-57
2023/05/03 05:25:42;;;;;;;7.03;6.07;;;;;;;;;;5033426;28;20410;-56
2023/05/03 05:28:09;;;;;;;7.65;6.00;;;;;;;;;;5033532;28;20399;-56
2023/05/03 05:30:35;;;;;;;6.07;5.40;;;;;;;;;;5033319;28;20445;-56
2023/05/03 05:33:02;;;;;;;8.18;6.18;;;;;;;;;;5033091;28;20435;-56
2023/05/03 05:35:28;;;;;;;9.32;6.10;;;;;;;;;;5033212;28;20553;-56
2023/05/03 05:37:54;;;;;;;8.20;5.63;;;;;;;;;;5032999;28;20472;-55
2023/05/03 05:40:21;;;;;;;6.22;5.60;;;;;;;;;;5033253;28;20537;-55
2023/05/03 05:42:47;;;;;;;6.18;5.20;;;;;;;;;;5033074;28;20407;-54
2023/05/03 05:45:14;;;;;;;6.10;5.00;;;;;;;;;;5033055;28;20410;-54
2023/05/03 05:47:40;;;;;;;5.75;4.70;;;;;;;;;;5032923;28;20403;-56
2023/05/03 05:50:06;;;;;;;5.45;4.60;;;;;;;;;;5033053;28;20843;-54
2023/05/03 05:52:32;;;;;;;5.78;4.18;;;;;;;;;;5032586;28;20423;-54
2023/05/03 05:54:58;;;;;;;6.03;4.22;;;;;;;;;;5032662;28;20438;-54
2023/05/03 05:57:25;;;;;;;6.68;4.80;;;;;;;;;;5032773;28;20399;-54
2023/05/03 05:59:51;;;;;;;9.32;5.10;;;;;;;;;;5032798;28;20418;-54
2023/05/03 06:02:21;;;;;;;7.72;4.85;;;;;;;;;;5032803;28;20387;-54
2023/05/03 06:04:47;;;;;;;5.25;4.60;;;;;;;;;;5032514;28;20475;-54
2023/05/03 06:07:15;;;;;;;7.28;4.63;;;;;;;;;;5032489;28;20435;-54
2023/05/03 06:09:41;;;;;;;7.13;4.60;;;;;;;;;;5032734;28;20449;-54
2023/05/03 06:12:09;;;;;;;6.10;4.78;;;;;;;;;;5032589;28;20449;-54
2023/05/03 06:14:36;;;;;;;5.45;4.18;;;;;;;;;;5032748;28;20461;-55
2023/05/03 06:17:03;;;;;;;6.05;4.45;;;;;;;;;;5032344;28;20490;-54
2023/05/03 06:19:29;;;;;;;6.57;4.40;;;;;;;;;;5032262;28;20821;-55
2023/05/03 06:21:55;;;;;;;5.25;4.20;;;;;;;;;;5032379;28;20399;-56
2023/05/03 06:24:21;;;;;;;5.82;4.35;;;;;;;;;;5014600;28;20413;-56
2023/05/03 06:26:47;;;;;;;4.30;3.80;;;;;;;;;;5033122;28;20232;-56
2023/05/03 06:29:13;;;;;;;5.17;3.80;;;;;;;;;;5033367;28;20883;-57
2023/05/03 06:31:40;;;;;;;6.20;3.47;;;;;;;;;;5033207;28;20303;-56
2023/05/03 06:34:06;;;;;;;4.53;3.60;;;;;;;;;;5033586;28;20211;-56
2023/05/03 06:36:33;;;;;;;4.67;3.53;;;;;;;;;;5033469;28;20193;-56
2023/05/03 06:38:59;;;;;;;4.27;3.37;;;;;;;;;;5033047;28;20278;-56
2023/05/03 06:41:25;;;;;;;4.43;3.37;;;;;;;;;;5033149;28;20197;-57
2023/05/03 06:43:52;;;;;;;4.33;3.50;;;;;;;;;;5033105;28;20227;-56
2023/05/03 06:46:18;;;;;;;4.80;3.30;;;;;;;;;;5033165;28;20216;-57
2023/05/03 06:48:45;;;;;;;4.57;2.70;;;;;;;;;;5032831;28;20201;-57
2023/05/03 06:51:11;;;;;;;4.27;2.80;;;;;;;;;;5032772;28;20228;-57
2023/05/03 06:53:37;;;;;;;3.43;2.83;;;;;;;;;;5033043;28;20684;-57
2023/05/03 06:56:04;;;;;;;6.37;2.80;;;;;;;;;;5032918;28;20193;-57
2023/05/03 06:58:30;;;;;;;5.00;2.77;;;;;;;;;;5032983;28;20220;-57
2023/05/03 07:00:56;;;;;;;6.13;2.57;;;;;;;;;;5032790;28;20239;-57
2023/05/03 07:03:22;;;;;;;3.00;2.23;;;;;;;;;;5032824;28;20641;-56
2023/05/03 07:05:50;;;;;;;4.83;2.40;;;;;;;;;;5032675;28;20714;-57
2023/05/03 07:08:16;;;;;;;4.57;2.20;;;;;;;;;;5032545;28;20740;-57
2023/05/03 07:10:42;;;;;;;4.30;2.50;;;;;;;;;;5032647;28;20217;-59
2023/05/03 07:13:08;;;;;;;3.23;1.67;;;;;;;;;;5032406;28;20232;-56
2023/05/03 07:15:34;;;;;;;2.00;1.33;;;;;;;;;;5032618;28;20197;-56
2023/05/03 07:18:00;;;;;;;2.47;1.43;;;;;;;;;;5032394;28;20560;-57
2023/05/03 07:20:26;;;;;;;3.47;1.47;;;;;;;;;;5032336;28;20800;-59
2023/05/03 07:22:53;;;;;;;2.47;1.40;;;;;;;;;;5032449;28;20258;-59
2023/05/03 07:25:19;;;;;;;2.03;1.20;;;;;;;;;;5032560;28;20192;-59
2023/05/03 07:27:45;;;;;;;1.50;0.97;;;;;;;;;;5032313;28;20193;-59
2023/05/03 07:30:12;;;;;;;5.10;1.40;;;;;;;;;;5032272;28;20584;-59
2023/05/03 07:32:38;;;;;;;3.73;1.67;;;;;;;;;;5032350;28;20225;-59
2023/05/03 07:35:04;;;;;;;4.57;3.10;;;;;;;;;;5032190;28;20213;-59
2023/05/03 07:37:30;;;;;;;4.90;2.00;;;;;;;;;;5032127;28;20584;-59
2023/05/03 07:39:58;;;;;;;2.27;2.07;;;;;;;;;;5031368;28;20204;-55
2023/05/03 07:42:24;;;;;;;4.57;1.80;;;;;;;;;;5032133;28;20204;-61
2023/05/03 07:44:50;;;;;;;2.97;1.50;;;;;;;;;;5032099;28;20197;-65
2023/05/03 07:47:16;;;;;;;3.77;1.80;;;;;;;;;;5032008;28;20208;-58
2023/05/03 07:49:42;;;;;;;3.20;1.80;;;;;;;;;;5032020;28;20613;-58
2023/05/03 07:52:08;;;;;;;4.70;1.50;;;;;;;;;;5031546;28;20691;-58
2023/05/03 07:54:34;;;;;;;2.67;1.30;;;;;;;;;;5032006;28;20197;-57
2023/05/03 07:57:02;;;;;;;1.63;1.33;;;;;;;;;;5031566;28;20213;-60
2023/05/03 07:59:28;;;;;;;2.97;1.40;;;;;;;;;;5031928;28;20205;-59
2023/05/03 08:01:54;;;;;;;3.03;1.40;;;;;;;;;;5032030;28;20223;-57
2023/05/03 08:04:20;;;;;;;3.03;1.30;;;;;;;;;;5032276;28;20216;-57
2023/05/03 08:06:46;;;;;;;4.00;1.63;;;;;;;;;;5031654;28;20691;-58
2023/05/03 08:09:12;;;;;;;2.80;1.40;;;;;;;;;;5031753;28;20283;-59
2023/05/03 08:11:38;;;;;;;3.60;1.40;;;;;;;;;;5031967;28;20232;-58
2023/05/03 08:14:06;;;;;;;1.90;1.30;;;;;;;;;;5031851;28;20196;-58
2023/05/03 08:16:32;;;;;;;2.47;1.50;;;;;;;;;;5031856;28;20201;-58
2023/05/03 08:18:58;;;;;;;2.93;1.33;;;;;;;;;;5031641;28;20193;-58
2023/05/03 08:21:25;;;;;;;3.50;1.40;;;;;;;;;;5031951;28;20647;-58
2023/05/03 08:23:50;;;;;;;2.53;1.33;;;;;;;;;;5031690;28;20205;-58
2023/05/03 08:26:16;;;;;;;4.33;1.60;;;;;;;;;;5031471;28;20219;-58
2023/05/03 08:28:42;;;;;;;2.87;1.13;;;;;;;;;;5031355;28;20220;-58
2023/05/03 08:31:10;;;;;;;2.70;1.47;;;;;;;;;;5031395;28;20249;-58
2023/05/03 08:33:36;;;;;;;6.50;1.70;;;;;;;;;;5029993;28;20209;-58
2023/05/03 08:36:02;;;;;;;2.43;1.10;;;;;;;;;;5030562;28;20189;-58
2023/05/03 08:38:28;;;;;;;2.17;1.40;;;;;;;;;;5031139;28;20208;-58
2023/05/03 08:40:54;;;;;;;2.67;1.70;;;;;;;;;;5031036;28;20193;-58
2023/05/03 08:43:22;;;;;;;1.30;1.10;;;;;;;;;;5031207;28;20193;-59
2023/05/03 08:45:48;;;;;;;4.47;1.60;;;;;;;;;;5031260;28;20206;-58
2023/05/03 08:48:15;;;;;;;2.80;1.43;;;;;;;;;;5031084;28;20207;-59
2023/05/03 08:50:41;;;;;;;4.87;1.30;;;;;;;;;;5032868;28;20202;-59
2023/05/03 08:53:07;;;;;;;2.70;1.47;;;;;;;;;;5034981;28;20204;-59
2023/05/03 08:55:33;;;;;;;4.23;1.50;;;;;;;;;;5035119;28;20253;-59
2023/05/03 08:58:00;;;;;;;3.73;1.80;;;;;;;;;;5034915;28;20328;-60
2023/05/03 09:00:28;;;;;;;3.07;1.40;;;;;;;;;;5034980;28;20205;-59
2023/05/03 09:02:54;;;;;;;2.67;1.43;;;;;;;;;;5034803;28;20651;-59
2023/05/03 09:05:34;;;;;;;2.63;1.47;;;;;;;;;;5034593;28;20319;-59
2023/05/03 09:08:02;;;;;;;3.60;1.47;;;;;;;;;;5034633;28;20204;-59
2023/05/03 09:10:29;;;;;;;1.83;1.27;;;;;;;;;;5034853;28;20239;-59
2023/05/03 09:12:58;;;;;;;3.53;1.40;;;;;;;;;;5034542;28;20574;-59
2023/05/03 09:15:25;;;;;;;3.83;1.60;;;;;;;;;;5034636;28;20197;-57
2023/05/03 09:18:06;;;;;;;3.63;1.60;;;;;;;;;;5034756;28;20670;-58
2023/05/03 09:20:35;;;;;;;4.70;1.53;;;;;;;;;;5035122;28;20863;-58
2023/05/03 09:23:01;;;;;;;4.20;1.37;;;;;;;;;;5034985;28;20197;-57
2023/05/03 09:25:40;;;;;;;1.40;1.30;;;;;;;;;;5034931;28;20204;-58
2023/05/03 09:28:06;;;;;;;2.80;1.60;;;;;;;;;;5035447;28;20250;-58
2023/05/03 09:30:32;;;;;;;4.50;1.70;;;;;;;;;;5034876;28;20197;-58
2023/05/03 09:32:58;;;;;;;3.83;1.57;;;;;;;;;;5034705;28;20315;-58
2023/05/03 09:35:24;;;;;;;3.90;1.67;;;;;;;;;;5034510;28;20295;-59
2023/05/03 09:37:51;;;;;;;3.23;1.40;;;;;;;;;;5034831;28;20225;-57
2023/05/03 09:40:17;;;;;;;2.30;1.40;;;;;;;;;;5034567;28;20685;-57
2023/05/03 09:43:04;;;;;;;1.87;1.20;;;;;;;;;;5034757;28;20254;-57
2023/05/03 09:45:30;;;;;;;4.13;1.17;;;;;;;;;;5034657;28;20207;-56
2023/05/03 09:47:56;;;;;;;3.10;1.33;;;;;;;;;;5034508;28;20196;-57
2023/05/03 09:50:25;;;;;;;3.27;1.47;;;;;;;;;;5034553;28;20262;-56
2023/05/03 09:52:53;;;;;;;2.77;1.67;;;;;;;;;;5034444;28;20219;-60
2023/05/03 09:55:20;;;;;;;2.87;1.60;;;;;;;;;;5034476;28;20196;-58
2023/05/03 09:57:47;;;;;;;3.17;1.50;;;;;;;;;;5034434;28;20203;-60
2023/05/03 10:00:15;;;;;;;3.93;1.63;;;;;;;;;;5034250;28;20310;-59
2023/05/03 10:02:42;;;;;;;3.50;1.50;;;;;;;;;;5033565;28;20211;-60
2023/05/03 10:05:11;;;;;;;3.63;1.53;;;;;;;;;;5033911;28;20225;-59
2023/05/03 10:07:40;;;;;;;2.00;1.33;;;;;;;;;;5034175;28;20605;-59
2023/05/03 10:10:08;;;;;;;3.30;1.70;;;;;;;;;;5034405;28;20234;-59
2023/05/03 10:12:35;;;;;;;2.00;1.20;;;;;;;;;;5034216;28;20224;-59
2023/05/03 10:15:03;;;;;;;6.10;2.00;;;;;;;;;;5034031;28;20253;-60
2023/05/03 10:17:32;;;;;;;3.33;1.50;;;;;;;;;;5034023;28;20201;-60
2023/05/03 10:20:06;;;;;;;4.20;1.53;;;;;;;;;;5034024;28;20206;-59
2023/05/03 10:22:32;;;;;;;4.27;1.67;;;;;;;;;;5034021;28;20194;-59
2023/05/03 10:25:15;;;;;;;5.77;1.90;;;;;;;;;;5034064;28;20218;-60
2023/05/03 10:27:50;;;;;;;4.20;2.10;;;;;;;;;;5033926;28;20233;-60
2023/05/03 10:30:27;;;;;;;4.50;1.83;;;;;;;;;;5033793;28;20233;-60
2023/05/03 10:32:54;;;;;;;4.27;1.90;;;;;;;;;;5033892;28;20236;-60
2023/05/03 10:35:20;;;;;;;4.33;1.90;;;;;;;;;;5033676;28;20635;-60
2023/05/03 10:37:48;;;;;;;3.63;1.40;;;;;;;;;;5033564;28;20197;-63
2023/05/03 10:40:15;;;;;;;3.30;1.33;;;;;;;;;;5033528;28;20207;-60
2023/05/03 10:42:45;;;;;;;4.90;1.37;;;;;;;;;;5033521;28;20689;-60
2023/05/03 10:45:19;;;;;;;1.73;1.20;;;;;;;;;;5033427;28;20273;-59
2023/05/03 10:48:12;;;;;;;2.50;1.30;;;;;;;;;;5033478;28;20221;-59
2023/05/03 10:50:38;;;;;;;3.40;1.40;;;;;;;;;;5033322;28;20284;-60
2023/05/03 10:53:04;;;;;;;4.17;1.40;;;;;;;;;;5033204;28;20706;-59
2023/05/03 10:55:30;;;;;;;3.00;1.60;;;;;;;;;;5033485;28;20300;-60
2023/05/03 10:57:58;;;;;;;4.87;1.70;;;;;;;;;;5033146;28;20197;-60
2023/05/03 11:00:28;;;;;;;4.10;1.47;;;;;;;;;;5033196;28;20292;-60
2023/05/03 11:03:09;;;;;;;3.97;1.40;;;;;;;;;;5033148;28;20268;-59
2023/05/03 11:05:36;;;;;;;2.97;1.40;;;;;;;;;;5033241;28;20242;-59
2023/05/03 11:08:09;;;;;;;2.00;1.30;;;;;;;;;;5033237;28;20223;-59
2023/05/03 11:10:35;;;;;;;2.50;1.63;;;;;;;;;;5033624;28;20193;-59
2023/05/03 11:13:02;;;;;;;4.47;2.13;;;;;;;;;;5031416;28;20554;-59
2023/05/03 11:15:29;;;;;;;3.33;1.40;;;;;;;;;;5032532;28;20208;-60
2023/05/03 11:17:55;;;;;;;4.30;1.50;;;;;;;;;;5032765;28;20243;-59
2023/05/03 11:20:21;;;;;;;3.13;1.27;;;;;;;;;;5032584;28;20209;-59
2023/05/03 11:22:47;;;;;;;3.17;1.50;;;;;;;;;;5031521;28;20413;-59
2023/05/03 11:25:16;;;;;;;9.57;2.03;;;;;;;;;;5031513;28;20406;-61
2023/05/03 11:27:42;;;;;;;5.93;1.80;;;;;;;;;;5032494;28;20205;-60
2023/05/03 11:30:11;;;;;;;5.77;2.00;;;;;;;;;;5032584;28;20202;-59
2023/05/03 11:32:36;;;;;;;4.47;1.73;;;;;;;;;;5032450;28;20232;-59
2023/05/03 11:35:16;;;;;;;2.90;1.63;;;;;;;;;;5087194;28;20621;-61
2023/05/03 11:37:43;;;;;;;7.90;1.70;;;;;;;;;;5089137;28;20594;-60
2023/05/03 11:40:15;;;;;;;4.30;1.77;;;;;;;;;;5089026;28;20195;-61
2023/05/03 11:42:52;;;;;;;5.20;1.83;;;;;;;;;;5089115;28;20260;-61
2023/05/03 11:45:18;;;;;;;5.80;2.00;;;;;;;;;;5088921;28;20203;-59
2023/05/03 11:47:45;;;;;;;5.07;1.60;;;;;;;;;;5088996;28;20196;-59
2023/05/03 11:50:11;;;;;;;4.37;1.77;;;;;;;;;;5087670;28;20455;-60
2023/05/03 11:52:38;;;;;;;3.20;1.67;;;;;;;;;;5088809;28;20225;-61
2023/05/03 11:55:06;;;;;;;3.92;1.80;;;;;;;;;;5087584;28;20426;-60
2023/05/03 11:57:32;;;;;;;6.83;2.30;;;;;;;;;;5088603;28;20204;-60
2023/05/03 12:00:09;;;;;;;4.30;1.83;;;;;;;;;;5088596;28;20302;-61
2023/05/03 12:02:35;;;;;;;4.55;1.85;;;;;;;;;;5087374;28;20810;-60
2023/05/03 12:05:01;;;;;;;3.87;1.87;;;;;;;;;;5088378;28;20223;-60
2023/05/03 12:07:27;;;;;;;4.23;1.77;;;;;;;;;;5088315;28;20187;-60
2023/05/03 12:09:55;;;;;;;3.40;1.80;;;;;;;;;;5088542;28;20196;-60
2023/05/03 12:12:21;;;;;;;2.97;1.80;;;;;;;;;;5088464;28;20252;-60
2023/05/03 12:14:57;;;;;;;3.83;1.70;;;;;;;;;;5088273;28;20232;-59
2023/05/03 12:17:33;;;;;;;2.33;1.50;;;;;;;;;;5088196;28;20227;-62
2023/05/03 12:20:13;;;;;;;2.77;1.40;;;;;;;;;;5088234;28;20209;-60
2023/05/03 12:22:40;;;;;;;4.13;1.70;;;;;;;;;;5088230;28;20675;-58
2023/05/03 12:25:07;;;;;;;3.50;1.67;;;;;;;;;;5088422;28;20195;-60
2023/05/03 12:27:33;;;;;;;3.80;1.50;;;;;;;;;;5088259;28;20716;-60
2023/05/03 12:29:59;;;;;;;4.30;1.30;;;;;;;;;;5088172;28;20287;-59
2023/05/03 12:32:25;;;;;;;3.50;1.80;;;;;;;;;;5087988;28;20218;-60
2023/05/03 12:34:55;;;;;;;2.47;1.50;;;;;;;;;;5087976;28;20444;-59
2023/05/03 12:37:21;;;;;;;4.67;1.63;;;;;;;;;;5087955;28;20199;-59
2023/05/03 12:39:47;;;;;;;5.23;1.77;;;;;;;;;;5087842;28;20657;-59
2023/05/03 12:42:14;;;;;;;6.03;1.97;;;;;;;;;;5087857;28;20241;-59
2023/05/03 12:44:41;;;;;;;6.67;2.10;;;;;;;;;;5084624;28;20202;-60
2023/05/03 12:47:06;;;;;;;3.50;1.63;;;;;;;;;;5072280;28;20255;-60
2023/05/03 12:49:33;;;;;;;3.40;1.90;;;;;;;;;;5074069;28;20198;-60
2023/05/03 12:51:59;;;;;;;3.43;1.67;;;;;;;;;;5073946;28;20206;-60
2023/05/03 12:54:25;;;;;;;3.97;1.87;;;;;;;;;;5073468;28;20226;-60
2023/05/03 12:56:51;;;;;;;3.63;2.00;;;;;;;;;;5073746;28;20613;-60
2023/05/03 12:59:18;;;;;;;3.93;1.77;;;;;;;;;;5073510;28;20204;-60
2023/05/03 13:01:44;;;;;;;5.57;1.70;;;;;;;;;;5073517;28;20564;-59
2023/05/03 13:04:11;;;;;;;3.60;1.60;;;;;;;;;;5073289;28;20208;-61
2023/05/03 13:06:37;;;;;;;2.27;1.57;;;;;;;;;;5073422;28;20209;-61
2023/05/03 13:09:04;;;;;;;2.77;1.70;;;;;;;;;;5073650;28;20657;-59
2023/05/03 13:11:31;;;;;;;2.87;1.40;;;;;;;;;;5073780;28;20324;-58
2023/05/03 13:13:57;;;;;;;2.67;1.63;;;;;;;;;;5073797;28;20224;-57
2023/05/03 13:16:24;;;;;;;2.83;1.60;;;;;;;;;;5073900;28;20200;-57
2023/05/03 13:18:55;;;;;;;6.43;2.10;;;;;;;;;;5073767;28;20707;-54
2023/05/03 13:21:21;;;;;;;4.27;1.87;;;;;;;;;;5064349;28;20213;-58
2023/05/03 13:23:48;;;;;;;7.57;1.90;;;;;;;;;;5073517;28;20570;-57
2023/05/03 13:26:14;;;;;;;2.70;1.87;;;;;;;;;;5073299;28;20275;-58
2023/05/03 13:28:40;;;;;;;8.87;2.00;;;;;;;;;;5073183;28;20730;-57
2023/05/03 13:31:06;;;;;;;4.00;1.67;;;;;;;;;;5073562;28;20206;-59
2023/05/03 13:33:36;;;;;;;2.07;1.57;;;;;;;;;;5072943;28;20270;-59
2023/05/03 13:36:03;;;;;;;3.90;1.63;;;;;;;;;;5072991;28;20568;-57
2023/05/03 13:38:29;;;;;;;3.90;2.03;;;;;;;;;;5073104;28;20273;-58
2023/05/03 13:40:55;;;;;;;2.90;1.70;;;;;;;;;;5073025;28;20653;-57
2023/05/03 13:43:21;;;;;;;4.00;1.63;;;;;;;;;;5073114;28;20206;-59
2023/05/03 13:45:47;;;;;;;3.53;1.57;;;;;;;;;;5073306;28;20219;-57
2023/05/03 13:48:13;;;;;;;2.57;1.50;;;;;;;;;;5069476;28;20875;-57
2023/05/03 13:50:40;;;;;;;2.30;1.50;;;;;;;;;;5072992;28;20196;-56
2023/05/03 13:53:06;;;;;;;5.70;1.77;;;;;;;;;;5073002;28;20203;-58
2023/05/03 13:55:32;;;;;;;3.17;1.70;;;;;;;;;;5073084;28;20210;-60
2023/05/03 13:57:58;;;;;;;4.00;1.60;;;;;;;;;;5072073;28;20192;-60
2023/05/03 14:00:24;;;;;;;3.87;1.57;;;;;;;;;;5072872;28;20249;-61
2023/05/03 14:02:51;;;;;;;3.00;1.50;;;;;;;;;;5070310;28;20203;-60
2023/05/03 14:05:18;;;;;;;3.30;1.60;;;;;;;;;;5072635;28;20212;-59
2023/05/03 14:07:46;;;;;;;3.10;1.73;;;;;;;;;;5072397;28;20223;-60
2023/05/03 14:10:12;;;;;;;2.93;1.60;;;;;;;;;;5072476;28;20824;-59
2023/05/03 14:12:38;;;;;;;2.43;1.40;;;;;;;;;;5072652;28;20207;-59
2023/05/03 14:15:04;;;;;;;5.10;1.80;;;;;;;;;;5072604;28;20221;-60
2023/05/03 14:17:31;;;;;;;3.23;1.47;;;;;;;;;;5072460;28;20226;-60
2023/05/03 14:19:57;;;;;;;6.17;1.60;;;;;;;;;;5072739;28;20275;-60
2023/05/03 14:22:23;;;;;;;4.67;1.70;;;;;;;;;;5072262;28;20203;-59
2023/05/03 14:24:51;;;;;;;3.60;1.70;;;;;;;;;;5070729;28;20195;-60
2023/05/03 14:27:20;;;;;;;4.90;1.70;;;;;;;;;;5072328;28;20657;-60
2023/05/03 14:29:46;;;;;;;2.90;1.37;;;;;;;;;;5072048;28;20258;-59
2023/05/03 14:32:12;;;;;;;6.97;2.27;;;;;;;;;;5072038;28;20199;-60
2023/05/03 14:34:38;;;;;;;3.43;1.70;;;;;;;;;;5071694;28;20646;-60
2023/05/03 14:37:04;;;;;;;1.67;1.47;;;;;;;;;;5071963;28;20661;-60
2023/05/03 14:39:30;;;;;;;3.50;1.90;;;;;;;;;;5072066;28;20652;-60
2023/05/03 14:41:57;;;;;;;3.53;1.60;;;;;;;;;;5071888;28;20202;-60
2023/05/03 14:44:24;;;;;;;3.40;1.60;;;;;;;;;;5071905;28;20208;-60
2023/05/03 14:46:51;;;;;;;4.70;1.80;;;;;;;;;;5072169;28;20205;-59
2023/05/03 14:49:18;;;;;;;3.63;1.90;;;;;;;;;;5072112;28;20217;-60
2023/05/03 14:51:45;;;;;;;3.47;1.73;;;;;;;;;;5071880;28;20563;-60